Time;durP1;ratioP1;P1;durP2;ratioP2;P2;SDS_P1;SDS_P2;PMS_P1;PMS_P2;Temp;Humidity;BMP_temperature;BMP_pressure;BME280_temperature;BME280_humidity;BME280_pressure;Samples;Min_cycle;Max_cycle;Signal;HPM_P1;HPM_P2
2022/12/18 00:02:01;;;;;;;33.50;18.57;;;-3.80;36.50;;;;;;5031344;28;20197;-47
2022/12/18 00:04:28;;;;;;;35.83;18.10;;;-3.80;36.40;;;;;;5031261;28;20328;-47
2022/12/18 00:06:54;;;;;;;32.83;19.17;;;-3.90;36.60;;;;;;5031430;28;20500;-47
2022/12/18 00:09:20;;;;;;;30.10;17.58;;;-4.00;36.80;;;;;;5031474;28;20651;-47
2022/12/18 00:11:46;;;;;;;40.92;19.73;;;-3.90;37.00;;;;;;5033693;28;20174;-48
2022/12/18 00:14:13;;;;;;;30.07;17.13;;;-3.90;37.50;;;;;;5034876;28;20207;-47
2022/12/18 00:16:40;;;;;;;30.15;17.15;;;-4.00;36.70;;;;;;5034964;28;20232;-47
2022/12/18 00:19:07;;;;;;;33.33;17.48;;;-4.00;36.90;;;;;;5034935;28;20631;-47
2022/12/18 00:21:33;;;;;;;28.02;17.63;;;-4.00;36.90;;;;;;5034891;28;20633;-47
2022/12/18 00:24:00;;;;;;;34.53;19.13;;;-3.90;36.90;;;;;;5033378;28;20199;-47
2022/12/18 00:26:31;;;;;;;34.28;18.20;;;-3.90;36.90;;;;;;5034875;28;20174;-47
2022/12/18 00:29:03;;;;;;;30.77;17.25;;;-3.90;36.90;;;;;;5033566;28;20645;-47
2022/12/18 00:31:29;;;;;;;30.52;17.40;;;-3.90;36.90;;;;;;5034725;28;20637;-47
2022/12/18 00:33:55;;;;;;;37.37;19.43;;;-4.00;36.40;;;;;;5034490;28;20292;-47
2022/12/18 00:36:24;;;;;;;29.75;17.88;;;-4.00;36.30;;;;;;5034587;28;20170;-47
2022/12/18 00:38:50;;;;;;;35.22;18.38;;;-4.10;36.30;;;;;;5034566;28;20196;-47
2022/12/18 00:42:55;;;;;;;26.38;17.25;;;-4.20;36.20;;;;;;5034613;28;20252;-47
2022/12/18 00:44:04;;;;;;;28.25;18.00;;;-4.20;36.30;;;;;;5034132;28;20587;-47
2022/12/18 00:46:30;;;;;;;26.27;17.35;;;-4.30;36.50;;;;;;5034464;28;20176;-47
2022/12/18 00:48:56;;;;;;;25.13;16.92;;;-4.30;36.70;;;;;;5034381;28;20260;-47
2022/12/18 00:51:22;;;;;;;34.07;17.67;;;-4.20;36.70;;;;;;5034299;28;20261;-47
2022/12/18 00:53:48;;;;;;;31.33;18.40;;;-4.20;36.60;;;;;;5034099;28;20539;-47
2022/12/18 00:56:14;;;;;;;28.40;18.90;;;-4.20;36.50;;;;;;5034273;28;20666;-47
2022/12/18 00:58:39;;;;;;;29.50;15.90;;;-4.20;36.50;;;;;;5034261;28;20633;-47
2022/12/18 01:01:05;;;;;;;28.83;17.57;;;-4.20;36.60;;;;;;5034206;28;20245;-47
2022/12/18 01:03:31;;;;;;;28.13;16.80;;;-4.20;36.60;;;;;;5033760;28;20211;-47
2022/12/18 01:05:57;;;;;;;32.90;16.63;;;-4.20;36.60;;;;;;5034017;28;20177;-47
2022/12/18 01:08:23;;;;;;;31.50;16.77;;;-4.20;36.60;;;;;;5034057;28;20207;-47
2022/12/18 01:10:48;;;;;;;32.50;17.80;;;-4.30;36.50;;;;;;5034074;28;20415;-47
2022/12/18 01:13:14;;;;;;;31.53;15.87;;;-4.40;36.40;;;;;;5033766;28;20481;-47
2022/12/18 01:15:40;;;;;;;41.13;20.00;;;-4.40;36.40;;;;;;5033883;28;20905;-48
2022/12/18 01:18:07;;;;;;;33.35;17.80;;;-4.50;36.50;;;;;;5033872;28;20207;-47
2022/12/18 01:20:32;;;;;;;30.50;17.60;;;-4.50;36.70;;;;;;5033707;28;20212;-47
2022/12/18 01:22:58;;;;;;;30.53;18.17;;;-4.50;36.70;;;;;;5032507;28;20193;-47
2022/12/18 01:25:24;;;;;;;31.97;17.13;;;-4.50;36.70;;;;;;5033773;28;20400;-47
2022/12/18 01:27:50;;;;;;;31.77;16.73;;;-4.50;36.70;;;;;;5033689;28;20424;-47
2022/12/18 01:30:16;;;;;;;28.47;17.83;;;-4.40;36.70;;;;;;5033677;28;20178;-48
2022/12/18 01:32:42;;;;;;;30.33;17.40;;;-4.40;36.70;;;;;;5033358;28;20710;-47
2022/12/18 01:35:08;;;;;;;26.70;16.17;;;-4.40;37.20;;;;;;5033436;28;20459;-47
2022/12/18 01:37:33;;;;;;;31.40;17.13;;;-4.40;36.40;;;;;;5033401;28;20285;-47
2022/12/18 01:39:59;;;;;;;30.60;18.63;;;-4.50;36.40;;;;;;5033570;28;20420;-47
2022/12/18 01:42:25;;;;;;;33.07;19.60;;;-4.50;36.50;;;;;;5033228;28;20172;-47
2022/12/18 01:45:06;;;;;;;39.72;17.83;;;-4.50;36.50;;;;;;5033225;28;20209;-47
2022/12/18 01:47:47;;;;;;;38.38;19.58;;;-4.50;36.50;;;;;;5033244;28;20222;-47
2022/12/18 01:50:30;;;;;;;37.20;18.92;;;-4.50;36.50;;;;;;5033277;28;20182;-47
2022/12/18 01:53:18;;;;;;;25.08;14.45;;;-4.50;36.50;;;;;;5032998;28;20168;-47
2022/12/18 01:55:47;;;;;;;28.70;17.50;;;-4.60;36.20;;;;;;5033182;28;20617;-47
2022/12/18 01:58:13;;;;;;;31.25;16.45;;;-4.60;36.30;;;;;;5032999;28;20735;-47
2022/12/18 02:00:39;;;;;;;31.08;15.60;;;-4.60;36.30;;;;;;5033028;28;20226;-47
2022/12/18 02:03:05;;;;;;;23.23;13.10;;;-3.80;36.50;;;;;;5032623;28;20196;-47
2022/12/18 02:05:58;;;;;;;34.45;18.60;;;-3.90;36.70;;;;;;5032990;28;20479;-47
2022/12/18 02:08:33;;;;;;;25.63;14.93;;;-4.70;36.40;;;;;;5032895;28;20180;-47
2022/12/18 02:11:10;;;;;;;39.28;16.67;;;-4.80;36.50;;;;;;5032960;28;20512;-47
2022/12/18 02:13:44;;;;;;;28.67;17.42;;;-4.70;36.70;;;;;;5032821;28;20196;-47
2022/12/18 02:16:46;;;;;;;30.48;14.80;;;-4.70;36.60;;;;;;5032869;28;20172;-47
2022/12/18 02:19:30;;;;;;;25.35;16.15;;;-4.70;36.60;;;;;;5032966;28;20244;-47
2022/12/18 02:22:13;;;;;;;29.67;16.75;;;-4.70;36.50;;;;;;5032727;28;20175;-47
2022/12/18 02:24:50;;;;;;;35.40;18.17;;;-4.70;36.50;;;;;;5032569;28;20238;-47
2022/12/18 02:27:16;;;;;;;29.58;16.00;;;-4.70;36.40;;;;;;5032554;28;20165;-47
2022/12/18 02:29:50;;;;;;;30.88;16.17;;;-4.70;36.40;;;;;;5032537;28;20219;-47
2022/12/18 02:32:19;;;;;;;31.63;16.88;;;-4.70;36.40;;;;;;5032293;28;20200;-47
2022/12/18 02:34:46;;;;;;;23.73;13.95;;;-4.70;36.30;;;;;;5032183;28;20200;-47
2022/12/18 02:37:16;;;;;;;31.55;16.10;;;-4.80;36.10;;;;;;5032340;28;20204;-47
2022/12/18 02:39:44;;;;;;;37.00;16.75;;;-4.90;36.10;;;;;;5032302;28;20299;-47
2022/12/18 02:42:11;;;;;;;24.33;15.15;;;-4.90;36.10;;;;;;5032247;28;20176;-47
2022/12/18 02:44:49;;;;;;;32.85;16.52;;;-4.50;36.60;;;;;;5032205;28;20197;-46
2022/12/18 02:47:17;;;;;;;42.28;17.85;;;-4.80;36.60;;;;;;5032251;28;20637;-46
2022/12/18 02:49:58;;;;;;;26.48;16.58;;;-4.80;36.70;;;;;;5032271;28;20319;-47
2022/12/18 02:52:29;;;;;;;30.38;16.85;;;-4.70;36.90;;;;;;5031936;28;20264;-47
2022/12/18 02:55:36;;;;;;;28.80;16.52;;;-4.70;36.90;;;;;;5032085;28;20193;-46
2022/12/18 02:58:02;;;;;;;33.25;16.85;;;-4.60;36.90;;;;;;5032059;28;20291;-47
2022/12/18 03:00:39;;;;;;;32.33;17.27;;;-4.50;37.20;;;;;;5032044;28;20252;-47
2022/12/18 03:03:18;;;;;;;37.33;15.73;;;-4.40;37.20;;;;;;5031764;28;20157;-47
2022/12/18 03:05:53;;;;;;;24.10;14.77;;;-4.40;37.20;;;;;;5032064;28;20171;-47
2022/12/18 03:08:27;;;;;;;33.47;16.83;;;-4.30;37.20;;;;;;5032009;28;20222;-47
2022/12/18 03:11:10;;;;;;;32.80;18.55;;;-4.30;37.30;;;;;;5032015;28;20173;-47
2022/12/18 03:13:39;;;;;;;25.33;15.75;;;-4.20;37.20;;;;;;5031755;28;20604;-47
2022/12/18 03:16:10;;;;;;;25.65;14.95;;;-4.20;37.20;;;;;;5031865;28;20180;-47
2022/12/18 03:18:42;;;;;;;38.13;17.20;;;-4.10;37.30;;;;;;5031901;28;20197;-47
2022/12/18 03:21:10;;;;;;;33.53;16.90;;;-4.10;37.40;;;;;;5032019;28;20169;-46
2022/12/18 03:23:42;;;;;;;26.40;15.52;;;-4.00;37.50;;;;;;5031595;28;20796;-46
2022/12/18 03:26:13;;;;;;;26.60;15.60;;;-3.90;37.50;;;;;;5031907;28;20234;-47
2022/12/18 03:28:45;;;;;;;23.08;14.10;;;-3.90;38.30;;;;;;5031872;28;20157;-47
2022/12/18 03:31:13;;;;;;;29.90;17.52;;;-3.80;37.60;;;;;;5031793;28;20269;-47
2022/12/18 03:34:01;;;;;;;22.88;14.23;;;-3.80;37.70;;;;;;5031502;28;20220;-47
2022/12/18 03:36:30;;;;;;;34.20;14.90;;;-3.70;37.90;;;;;;5031639;28;20176;-47
2022/12/18 03:38:59;;;;;;;29.60;16.60;;;-3.70;37.90;;;;;;5031797;28;20246;-47
2022/12/18 03:41:32;;;;;;;31.17;16.77;;;-3.60;37.90;;;;;;5031679;28;20191;-47
2022/12/18 03:44:26;;;;;;;27.23;14.10;;;-3.60;37.90;;;;;;5031405;28;20193;-46
2022/12/18 03:47:16;;;;;;;26.45;14.43;;;-3.50;37.90;;;;;;5034457;28;20176;-46
2022/12/18 03:50:05;;;;;;;28.73;13.80;;;-3.40;37.90;;;;;;5035598;28;20224;-48
2022/12/18 03:52:38;;;;;;;23.33;14.18;;;-3.40;38.00;;;;;;5035255;28;20193;-47
2022/12/18 03:55:06;;;;;;;23.30;12.95;;;-3.30;38.10;;;;;;5035387;28;20196;-47
2022/12/18 03:57:33;;;;;;;25.98;13.45;;;-3.30;38.10;;;;;;5035378;28;20201;-47
2022/12/18 04:00:06;;;;;;;22.13;14.43;;;-3.30;38.00;;;;;;5035313;28;20644;-48
2022/12/18 04:02:34;;;;;;;27.05;12.40;;;-3.30;37.90;;;;;;5035134;28;20159;-47
2022/12/18 04:05:04;;;;;;;30.48;14.68;;;-3.30;37.80;;;;;;5035108;28;20201;-47
2022/12/18 04:07:30;;;;;;;25.35;14.75;;;-3.30;37.70;;;;;;5035220;28;20516;-47
2022/12/18 04:09:59;;;;;;;24.83;13.50;;;-3.40;37.60;;;;;;5035198;28;20189;-47
2022/12/18 04:12:28;;;;;;;23.27;14.32;;;-3.40;37.60;;;;;;5034953;28;20183;-46
2022/12/18 04:14:54;;;;;;;28.67;14.13;;;-3.50;37.50;;;;;;5034920;28;20553;-47
2022/12/18 04:17:20;;;;;;;26.23;13.60;;;-3.50;37.40;;;;;;5034905;28;20200;-47
2022/12/18 04:19:46;;;;;;;26.98;14.57;;;-3.60;37.30;;;;;;5034843;28;20401;-47
2022/12/18 04:22:12;;;;;;;24.58;13.25;;;-3.60;37.20;;;;;;5034698;28;20208;-47
2022/12/18 04:24:37;;;;;;;21.70;13.00;;;-3.70;37.20;;;;;;5034816;28;20739;-47
2022/12/18 04:27:04;;;;;;;21.07;11.97;;;-3.80;37.00;;;;;;5034862;28;20408;-47
2022/12/18 04:29:30;;;;;;;30.02;14.27;;;-3.80;37.10;;;;;;5034755;28;20709;-47
2022/12/18 04:31:56;;;;;;;33.53;12.30;;;-3.90;37.00;;;;;;5034625;28;20180;-47
2022/12/18 04:34:22;;;;;;;29.07;12.63;;;-3.90;37.10;;;;;;5034537;28;20257;-47
2022/12/18 04:36:47;;;;;;;24.57;12.00;;;-4.00;37.00;;;;;;5034581;28;20482;-47
2022/12/18 04:39:14;;;;;;;23.67;12.77;;;-4.10;37.00;;;;;;5034633;28;20434;-47
2022/12/18 04:41:41;;;;;;;25.83;13.13;;;-4.10;36.90;;;;;;5034566;28;20206;-48
2022/12/18 04:44:07;;;;;;;18.65;11.63;;;-4.10;36.80;;;;;;5034379;28;20197;-47
2022/12/18 04:46:32;;;;;;;22.80;14.43;;;-4.20;36.60;;;;;;5034477;28;20185;-47
2022/12/18 04:48:58;;;;;;;28.77;14.20;;;-4.30;36.70;;;;;;5034440;28;20642;-47
2022/12/18 04:51:24;;;;;;;30.87;13.30;;;-4.30;36.70;;;;;;5034411;28;20252;-47
2022/12/18 04:53:50;;;;;;;26.17;12.90;;;-4.30;36.80;;;;;;5034149;28;20267;-46
2022/12/18 04:56:16;;;;;;;23.30;12.30;;;-4.40;36.70;;;;;;5034196;28;20173;-47
2022/12/18 04:58:43;;;;;;;18.77;12.23;;;-4.40;36.70;;;;;;5034236;28;20597;-47
2022/12/18 05:01:10;;;;;;;21.77;12.40;;;-4.40;36.70;;;;;;5034179;28;20177;-47
2022/12/18 05:03:36;;;;;;;26.13;12.93;;;-4.50;36.30;;;;;;5033679;28;20211;-47
2022/12/18 05:06:03;;;;;;;28.50;13.10;;;-4.60;36.40;;;;;;5034162;28;20654;-46
2022/12/18 05:08:29;;;;;;;23.65;11.65;;;-4.60;36.50;;;;;;5034082;28;20251;-47
2022/12/18 05:11:15;;;;;;;26.23;13.43;;;-4.60;36.50;;;;;;5034048;28;20255;-46
2022/12/18 05:13:42;;;;;;;26.40;13.13;;;-4.60;36.50;;;;;;5033697;28;21011;-47
2022/12/18 05:16:08;;;;;;;20.48;13.88;;;-4.60;36.50;;;;;;5033956;28;20268;-47
2022/12/18 05:18:34;;;;;;;24.80;12.07;;;-4.70;36.60;;;;;;5033852;28;20284;-46
2022/12/18 05:21:00;;;;;;;24.35;12.18;;;-4.70;36.50;;;;;;5033870;28;20187;-46
2022/12/18 05:23:27;;;;;;;21.38;12.23;;;-4.70;36.50;;;;;;5033596;28;20193;-46
2022/12/18 05:25:55;;;;;;;27.23;11.90;;;-4.80;36.40;;;;;;5033757;28;20177;-46
2022/12/18 05:28:22;;;;;;;26.85;12.48;;;-4.80;36.40;;;;;;5033576;28;20200;-47
2022/12/18 05:30:53;;;;;;;22.42;11.20;;;-4.80;36.50;;;;;;5033682;28;20200;-47
2022/12/18 05:33:20;;;;;;;26.48;13.75;;;-4.80;36.40;;;;;;5033380;28;20662;-47
2022/12/18 05:35:57;;;;;;;18.60;11.20;;;-4.80;36.50;;;;;;5033898;28;20642;-46
2022/12/18 05:38:24;;;;;;;22.13;11.82;;;-4.80;36.40;;;;;;5033488;28;20195;-46
2022/12/18 05:40:51;;;;;;;20.45;12.50;;;-4.90;36.40;;;;;;5033469;28;20643;-47
2022/12/18 05:43:19;;;;;;;20.90;10.88;;;-4.90;36.40;;;;;;5033114;28;20254;-46
2022/12/18 05:45:44;;;;;;;21.40;11.65;;;-4.90;36.40;;;;;;5033411;28;20173;-46
2022/12/18 05:48:14;;;;;;;20.13;12.37;;;-4.90;36.20;;;;;;5033412;28;20253;-47
2022/12/18 05:50:42;;;;;;;20.42;10.70;;;-5.00;36.10;;;;;;5033368;28;20418;-47
2022/12/18 05:53:08;;;;;;;25.45;12.60;;;-5.00;36.10;;;;;;5033151;28;20177;-46
2022/12/18 05:55:38;;;;;;;29.55;10.15;;;-5.10;36.20;;;;;;5033245;28;20176;-48
2022/12/18 05:58:06;;;;;;;22.58;11.27;;;-5.10;36.30;;;;;;5033287;28;20201;-47
2022/12/18 06:00:35;;;;;;;29.35;11.25;;;-5.10;36.20;;;;;;5033275;28;20542;-47
2022/12/18 06:03:01;;;;;;;15.38;10.40;;;-5.20;36.00;;;;;;5032860;28;20200;-46
2022/12/18 06:05:27;;;;;;;23.80;11.95;;;-5.20;36.20;;;;;;5032987;28;20538;-46
2022/12/18 06:07:53;;;;;;;17.33;8.50;;;-5.20;36.20;;;;;;5032738;28;20642;-47
2022/12/18 06:10:19;;;;;;;23.00;13.23;;;-5.20;36.20;;;;;;5032548;28;20176;-46
2022/12/18 06:12:45;;;;;;;18.43;10.13;;;-5.20;36.20;;;;;;5032514;28;20638;-46
2022/12/18 06:15:11;;;;;;;22.77;11.00;;;-5.20;36.30;;;;;;5032748;28;20762;-47
2022/12/18 06:17:37;;;;;;;21.17;11.17;;;-5.20;36.30;;;;;;5032631;28;20487;-47
2022/12/18 06:20:04;;;;;;;26.60;12.52;;;-5.20;36.20;;;;;;5032726;28;20411;-47
2022/12/18 06:22:31;;;;;;;22.25;11.40;;;-5.20;36.20;;;;;;5032443;28;20173;-48
2022/12/18 06:24:57;;;;;;;23.25;11.60;;;-5.20;36.30;;;;;;5032635;28;20193;-47
2022/12/18 06:27:23;;;;;;;19.33;11.10;;;-5.30;36.20;;;;;;5032654;28;20177;-46
2022/12/18 06:29:49;;;;;;;16.03;11.13;;;-5.30;36.00;;;;;;5032590;28;20522;-47
2022/12/18 06:32:14;;;;;;;26.57;10.40;;;-5.30;36.00;;;;;;5032302;28;20493;-47
2022/12/18 06:34:40;;;;;;;21.37;12.30;;;-5.30;36.00;;;;;;5032449;28;20614;-46
2022/12/18 06:37:06;;;;;;;19.10;10.17;;;-5.40;36.50;;;;;;5032399;28;20685;-47
2022/12/18 06:39:31;;;;;;;16.87;10.17;;;-5.40;35.90;;;;;;5032323;28;20407;-47
2022/12/18 06:41:57;;;;;;;24.60;11.47;;;-5.40;35.90;;;;;;5032100;28;20511;-47
2022/12/18 06:44:23;;;;;;;24.87;13.30;;;-5.50;35.80;;;;;;5032262;28;20189;-46
2022/12/18 06:46:49;;;;;;;25.40;13.40;;;-5.50;35.80;;;;;;5032252;28;20844;-46
2022/12/18 06:49:15;;;;;;;22.53;10.30;;;-5.60;35.70;;;;;;5032287;28;20685;-46
2022/12/18 06:51:42;;;;;;;21.27;11.50;;;-5.60;35.80;;;;;;5032177;28;20180;-47
2022/12/18 06:54:08;;;;;;;17.30;11.85;;;-5.60;35.80;;;;;;5032065;28;20216;-46
2022/12/18 06:56:34;;;;;;;21.70;10.57;;;-5.60;35.80;;;;;;5032077;28;20179;-46
2022/12/18 06:58:59;;;;;;;18.50;10.20;;;-5.60;35.80;;;;;;5032150;28;20169;-46
2022/12/18 07:01:25;;;;;;;25.50;11.97;;;-5.60;35.90;;;;;;5032105;28;20408;-46
2022/12/18 07:03:55;;;;;;;16.30;10.03;;;-5.60;35.70;;;;;;5031656;28;20208;-47
2022/12/18 07:06:23;;;;;;;15.63;9.25;;;-5.70;35.70;;;;;;5032008;28;20415;-46
2022/12/18 07:08:50;;;;;;;25.05;10.57;;;-5.70;35.50;;;;;;5031889;28;20190;-47
2022/12/18 07:11:17;;;;;;;20.15;11.38;;;-5.80;36.20;;;;;;5032008;28;20699;-46
2022/12/18 07:13:43;;;;;;;21.00;10.98;;;-5.80;35.70;;;;;;5031788;28;20291;-46
2022/12/18 07:16:18;;;;;;;20.42;10.50;;;-5.80;35.80;;;;;;5032003;28;20168;-46
2022/12/18 07:18:44;;;;;;;14.93;9.60;;;-5.70;35.80;;;;;;5031892;28;20325;-46
2022/12/18 07:21:13;;;;;;;21.67;12.65;;;-5.70;35.90;;;;;;5033639;28;20242;-46
2022/12/18 07:23:39;;;;;;;15.07;9.27;;;-5.70;35.70;;;;;;5035801;28;20200;-46
2022/12/18 07:26:09;;;;;;;16.03;9.73;;;-5.80;35.60;;;;;;5035999;28;20244;-46
2022/12/18 07:28:37;;;;;;;26.40;11.13;;;-5.70;35.50;;;;;;5036016;28;20965;-46
2022/12/18 07:31:21;;;;;;;15.13;9.38;;;-5.70;35.60;;;;;;5035860;28;20183;-46
2022/12/18 07:33:48;;;;;;;14.50;9.02;;;-5.80;35.60;;;;;;5035644;28;20192;-47
2022/12/18 07:36:14;;;;;;;17.23;10.75;;;-5.70;35.90;;;;;;5035800;28;20231;-46
2022/12/18 07:38:40;;;;;;;18.13;9.85;;;-5.60;35.90;;;;;;5035666;28;20268;-46
2022/12/18 07:41:09;;;;;;;15.68;9.00;;;-5.60;36.00;;;;;;5035700;28;20652;-47
2022/12/18 07:43:35;;;;;;;18.63;12.18;;;-5.50;36.10;;;;;;5035405;28;20217;-47
2022/12/18 07:46:01;;;;;;;27.58;12.63;;;-5.40;36.00;;;;;;5035496;28;20172;-47
2022/12/18 07:48:31;;;;;;;16.88;9.25;;;-5.30;35.90;;;;;;5035518;28;20538;-46
2022/12/18 07:51:01;;;;;;;19.17;10.80;;;-5.30;35.80;;;;;;5035566;28;20177;-47
2022/12/18 07:53:27;;;;;;;20.60;11.48;;;-5.20;35.60;;;;;;5035424;28;20580;-46
2022/12/18 07:56:01;;;;;;;21.15;12.32;;;-5.20;35.70;;;;;;5035314;28;20183;-47
2022/12/18 07:58:26;;;;;;;15.80;11.48;;;-5.00;35.70;;;;;;5035324;28;20204;-46
2022/12/18 08:00:52;;;;;;;24.00;11.60;;;-4.70;35.90;;;;;;5035318;28;20173;-48
2022/12/18 08:03:19;;;;;;;22.93;13.70;;;-4.30;36.20;;;;;;5035003;28;20195;-47
2022/12/18 08:05:44;;;;;;;20.55;11.68;;;-4.00;35.40;;;;;;5035252;28;20161;-47
2022/12/18 08:08:10;;;;;;;25.43;14.73;;;-3.80;35.40;;;;;;5035239;28;20192;-46
2022/12/18 08:10:37;;;;;;;23.52;12.40;;;-3.70;35.20;;;;;;5035005;28;20422;-46
2022/12/18 08:13:03;;;;;;;25.50;14.80;;;-3.60;35.10;;;;;;5034821;28;20183;-47
2022/12/18 08:15:29;;;;;;;25.20;14.57;;;-3.60;35.10;;;;;;5035034;28;20260;-47
2022/12/18 08:17:57;;;;;;;30.40;15.37;;;-3.50;35.20;;;;;;5034874;28;20220;-46
2022/12/18 08:20:23;;;;;;;30.58;18.42;;;-3.50;35.30;;;;;;5034966;28;20940;-46
2022/12/18 08:22:49;;;;;;;34.00;22.03;;;-3.40;35.50;;;;;;5034666;28;20174;-46
2022/12/18 08:25:14;;;;;;;42.30;23.67;;;-3.20;35.60;;;;;;5034759;28;20190;-47
2022/12/18 08:27:40;;;;;;;42.47;22.07;;;-3.10;35.80;;;;;;5034717;28;20666;-46
2022/12/18 08:30:07;;;;;;;45.23;20.63;;;-2.90;35.80;;;;;;5033508;28;20174;-46
2022/12/18 08:32:33;;;;;;;29.17;16.92;;;-2.90;35.70;;;;;;5034020;28;20174;-47
2022/12/18 08:35:01;;;;;;;33.67;19.03;;;-2.60;35.70;;;;;;5034616;28;20186;-46
2022/12/18 08:37:27;;;;;;;28.08;15.98;;;-2.30;35.90;;;;;;5034561;28;20447;-47
2022/12/18 08:39:53;;;;;;;36.27;16.17;;;-2.10;35.90;;;;;;5034547;28;20166;-48
2022/12/18 08:45:03;;;;;;;33.70;17.75;;;-1.90;35.60;;;;;;5034459;28;20201;-46
2022/12/18 08:47:29;;;;;;;32.55;17.15;;;-1.80;35.60;;;;;;5034499;28;20181;-47
2022/12/18 08:49:55;;;;;;;31.13;18.20;;;-1.60;35.60;;;;;;5034407;28;20166;-47
2022/12/18 08:52:20;;;;;;;24.10;16.67;;;-1.40;35.50;;;;;;5034186;28;20170;-47
2022/12/18 08:54:46;;;;;;;25.83;16.23;;;-1.20;35.30;;;;;;5034246;28;20213;-47
2022/12/18 08:57:12;;;;;;;29.40;16.13;;;-0.90;35.20;;;;;;5034464;28;20601;-46
2022/12/18 08:59:37;;;;;;;29.07;17.17;;;-0.70;35.20;;;;;;5034338;28;20166;-47
2022/12/18 09:02:03;;;;;;;25.60;15.53;;;-0.40;35.00;;;;;;5033907;28;20162;-47
2022/12/18 09:04:29;;;;;;;25.63;17.20;;;0.00;35.00;;;;;;5033920;28;20205;-47
2022/12/18 09:06:54;;;;;;;29.70;17.90;;;0.30;34.80;;;;;;5034071;28;20196;-47
2022/12/18 09:09:20;;;;;;;34.13;18.87;;;0.80;34.80;;;;;;5033863;28;20535;-47
2022/12/18 09:11:46;;;;;;;30.85;17.90;;;1.00;34.50;;;;;;5033989;28;20166;-48
2022/12/18 09:14:12;;;;;;;28.67;17.60;;;1.10;34.10;;;;;;5033859;28;20267;-48
2022/12/18 09:16:38;;;;;;;22.10;15.47;;;1.20;34.00;;;;;;5033840;28;20920;-48
2022/12/18 09:19:05;;;;;;;32.43;17.87;;;1.40;34.30;;;;;;5033991;28;20637;-48
2022/12/18 09:21:33;;;;;;;28.15;16.10;;;1.50;34.10;;;;;;5034020;28;20173;-48
2022/12/18 09:23:59;;;;;;;25.02;14.93;;;1.60;33.90;;;;;;5033512;28;20253;-47
2022/12/18 09:26:26;;;;;;;30.52;19.08;;;1.70;33.90;;;;;;5033695;28;20185;-47
2022/12/18 09:28:52;;;;;;;31.83;17.15;;;1.80;34.00;;;;;;5033722;28;20191;-48
2022/12/18 09:31:21;;;;;;;26.48;17.02;;;1.80;33.90;;;;;;5033668;28;20192;-48
2022/12/18 09:33:47;;;;;;;26.88;17.05;;;1.70;34.20;;;;;;5033282;28;20245;-48
2022/12/18 09:36:15;;;;;;;26.73;16.23;;;1.80;34.40;;;;;;5033570;28;20637;-48
2022/12/18 09:38:41;;;;;;;30.17;15.68;;;2.10;34.50;;;;;;5033329;28;20705;-48
2022/12/18 09:41:28;;;;;;;25.73;17.03;;;2.60;34.30;;;;;;5033501;28;20307;-47
2022/12/18 09:44:00;;;;;;;25.90;17.35;;;3.40;33.60;;;;;;5032308;28;20779;-48
2022/12/18 09:46:33;;;;;;;31.17;17.30;;;4.10;32.70;;;;;;5033350;28;20660;-47
2022/12/18 09:49:04;;;;;;;29.42;17.00;;;4.80;32.10;;;;;;5033463;28;20244;-48
2022/12/18 09:51:40;;;;;;;27.08;17.10;;;5.40;31.60;;;;;;5033225;28;20169;-48
2022/12/18 09:54:20;;;;;;;30.75;17.88;;;5.70;31.30;;;;;;5032909;28;20694;-49
2022/12/18 09:56:45;;;;;;;33.75;18.65;;;5.70;31.30;;;;;;5033092;28;20166;-48
2022/12/18 09:59:27;;;;;;;30.63;16.87;;;5.60;30.90;;;;;;5033025;28;20212;-48
2022/12/18 10:01:53;;;;;;;27.45;16.95;;;5.70;30.10;;;;;;5033034;28;20507;-49
2022/12/18 10:04:18;;;;;;;35.47;16.90;;;6.10;30.60;;;;;;5032758;28;20662;-48
2022/12/18 10:06:54;;;;;;;25.70;15.83;;;6.50;29.80;;;;;;5032887;28;20408;-48
2022/12/18 10:09:22;;;;;;;33.78;17.85;;;7.00;29.20;;;;;;5032900;28;20403;-48
2022/12/18 10:12:08;;;;;;;27.85;17.80;;;7.30;29.00;;;;;;5032593;28;20173;-48
2022/12/18 10:14:43;;;;;;;25.83;16.23;;;7.70;27.90;;;;;;5032717;28;20186;-48
2022/12/18 10:17:26;;;;;;;23.75;15.40;;;8.00;27.50;;;;;;5032764;28;20181;-49
2022/12/18 10:20:01;;;;;;;26.45;16.58;;;7.70;27.20;;;;;;5035150;23;20692;-49
2022/12/18 10:22:40;;;;;;;28.40;17.08;;;7.40;27.60;;;;;;4992583;28;20166;-49
2022/12/18 10:25:18;;;;;;;27.23;15.93;;;7.10;27.70;;;;;;4993332;28;20159;-49
2022/12/18 10:27:44;;;;;;;27.25;15.82;;;7.00;28.10;;;;;;4993187;28;20266;-49
2022/12/18 10:30:18;;;;;;;26.27;14.20;;;7.30;27.80;;;;;;4993078;28;20207;-49
2022/12/18 10:32:44;;;;;;;26.63;16.45;;;8.00;27.50;;;;;;4992782;28;20510;-49
2022/12/18 10:35:25;;;;;;;24.20;13.77;;;8.60;27.10;;;;;;4993061;28;20209;-49
2022/12/18 10:38:05;;;;;;;22.95;14.70;;;9.20;25.10;;;;;;4992970;28;20453;-49
2022/12/18 10:40:32;;;;;;;30.40;17.75;;;9.40;24.60;;;;;;4992873;28;20600;-49
2022/12/18 10:43:12;;;;;;;26.30;14.85;;;9.80;24.90;;;;;;4993038;28;20232;-49
2022/12/18 10:45:39;;;;;;;27.40;18.15;;;10.10;23.90;;;;;;4992986;28;20561;-50
2022/12/18 10:58:16;;;;;;;23.55;15.60;;;8.90;23.70;;;;;;4992491;28;20289;-50
2022/12/18 11:00:42;;;;;;;25.17;16.17;;;8.40;24.90;;;;;;4992650;28;20206;-49
2022/12/18 11:03:35;;;;;;;29.43;16.60;;;8.00;25.20;;;;;;4992509;28;20649;-49
2022/12/18 11:06:10;;;;;;;32.83;16.75;;;7.90;25.60;;;;;;4992601;28;20215;-49
2022/12/18 11:08:36;;;;;;;32.88;18.48;;;7.90;25.90;;;;;;4993061;28;20163;-50
2022/12/18 11:11:04;;;;;;;24.98;15.35;;;7.90;25.40;;;;;;4992565;28;20198;-50
2022/12/18 11:13:31;;;;;;;29.95;16.30;;;7.40;25.60;;;;;;4992344;28;20194;-50
2022/12/18 11:15:58;;;;;;;30.00;17.00;;;6.80;26.30;;;;;;4992608;28;20187;-50
2022/12/18 11:18:34;;;;;;;30.65;16.27;;;6.40;27.60;;;;;;4992343;28;20193;-51
2022/12/18 11:21:07;;;;;;;23.83;14.55;;;6.00;27.90;;;;;;4992372;28;20211;-50
2022/12/18 11:23:34;;;;;;;34.15;16.38;;;5.50;28.50;;;;;;4992567;28;20193;-50
2022/12/18 11:26:03;;;;;;;28.23;15.77;;;5.30;29.00;;;;;;4992405;28;20190;-51
2022/12/18 11:28:40;;;;;;;26.75;17.05;;;5.30;29.40;;;;;;4992706;28;20214;-50
2022/12/18 11:31:11;;;;;;;27.27;15.52;;;5.80;28.80;;;;;;4992311;28;20203;-51
2022/12/18 11:33:41;;;;;;;26.13;16.38;;;6.60;28.20;;;;;;4992147;28;20221;-51
2022/12/18 11:36:09;;;;;;;29.48;17.83;;;7.40;27.10;;;;;;4992486;28;20175;-50
2022/12/18 11:38:41;;;;;;;28.33;15.90;;;7.80;25.90;;;;;;4992458;28;20565;-50
2022/12/18 11:44:29;;;;;;;25.35;15.68;;;7.30;26.60;;;;;;4992542;28;20173;-50
2022/12/18 11:47:13;;;;;;;29.35;15.88;;;7.00;27.00;;;;;;4992251;28;20175;-51
2022/12/18 11:49:41;;;;;;;26.55;16.23;;;7.50;27.00;;;;;;4992106;28;20206;-52
2022/12/18 11:52:23;;;;;;;27.00;16.13;;;7.40;26.80;;;;;;4991980;28;20613;-50
2022/12/18 11:54:56;;;;;;;27.67;16.35;;;7.50;26.40;;;;;;4992347;28;20187;-51
2022/12/18 11:57:46;;;;;;;27.00;16.25;;;7.30;25.80;;;;;;4992055;28;20199;-51
2022/12/18 12:00:15;;;;;;;29.67;15.73;;;7.20;26.20;;;;;;4992027;28;20549;-51
2022/12/18 12:02:46;;;;;;;28.92;16.90;;;6.70;27.40;;;;;;4992218;28;20202;-51
2022/12/18 12:05:35;;;;;;;30.75;15.82;;;6.50;27.40;;;;;;4992034;28;20642;-51
2022/12/18 12:08:18;;;;;;;26.50;16.00;;;6.30;27.20;;;;;;4994980;28;20190;-51
2022/12/18 12:11:24;;;;;;;36.47;17.23;;;5.80;27.70;;;;;;4995680;28;20191;-51
2022/12/18 12:14:04;;;;;;;27.55;15.30;;;5.60;28.60;;;;;;4995475;28;20178;-51
2022/12/18 12:16:59;;;;;;;27.23;16.08;;;5.50;28.70;;;;;;4995663;28;20175;-51
2022/12/18 12:19:43;;;;;;;24.05;14.88;;;5.50;28.90;;;;;;4974474;28;20215;-50
2022/12/18 12:22:24;;;;;;;23.60;13.40;;;5.60;29.20;;;;;;4995667;28;20210;-50
2022/12/18 12:25:10;;;;;;;25.90;15.32;;;5.70;28.50;;;;;;4995561;28;20254;-51
2022/12/18 12:27:45;;;;;;;25.50;14.32;;;6.20;28.30;;;;;;4995751;28;20171;-51
2022/12/18 12:30:24;;;;;;;32.50;17.30;;;6.90;28.40;;;;;;4995415;28;20199;-51
2022/12/18 12:33:11;;;;;;;26.65;14.88;;;7.30;27.80;;;;;;4995226;28;20184;-50
2022/12/18 12:35:46;;;;;;;30.77;16.30;;;7.20;26.10;;;;;;4995585;28;20179;-51
2022/12/18 12:38:35;;;;;;;24.67;16.48;;;7.30;26.40;;;;;;4995240;28;20831;-51
2022/12/18 12:43:12;;;;;;;31.98;16.08;;;7.60;27.20;;;;;;4995210;28;20203;-51
2022/12/18 12:43:59;;;;;;;24.10;15.60;;;8.00;26.50;;;;;;4994776;28;20179;-51
2022/12/18 12:46:26;;;;;;;27.65;13.95;;;8.70;25.40;;;;;;4995358;28;20205;-51
2022/12/18 12:48:58;;;;;;;23.90;15.45;;;9.50;25.50;;;;;;4995051;28;20553;-52
2022/12/18 12:51:31;;;;;;;27.90;15.73;;;9.80;23.10;;;;;;4995026;28;20203;-52
2022/12/18 12:53:59;;;;;;;33.15;18.42;;;9.90;22.20;;;;;;4995045;28;20162;-51
2022/12/18 12:56:32;;;;;;;23.80;15.50;;;9.60;21.80;;;;;;4995017;28;20266;-51
2022/12/18 12:59:27;;;;;;;25.15;15.32;;;9.20;22.50;;;;;;4994789;28;20669;-51
2022/12/18 13:02:24;;;;;;;30.15;16.80;;;8.70;22.70;;;;;;4981552;28;20190;-51
2022/12/18 13:05:01;;;;;;;29.13;15.32;;;7.80;24.00;;;;;;4994791;28;20167;-51